UAOO

Kzyl-Orda Southwest Airport

Kzyl-Orda, Kazakhstan
TAF UAOO 210800Z 2109/2118 09006MPS CAVOK
Issued Valid From Valid To
Jul-21 @ 08:00 UTC
(2 hours ago)
Jul-21 @ 09:00 UTC
(54 minutes ago)
Jul-21 @ 18:00 UTC
(in 8 hours)
Jul-21 @ 09:00 to Jul-21 @ 18:00
TAF UAOO 210800Z 2109/2118 09006MPS CAVOK
Wind Visibility Clouds Conditions
90° at 12 knots 10,000+ meters
  • No significant clouds
TAF UAOO 210800Z 2109/2118 09006MPS CAVOK
Issued Jul-21 @ 08:00 UTC
(2 hours ago)
Valid From Jul-21 @ 09:00 UTC
(54 minutes ago)
Valid To Jul-21 @ 18:00 UTC
(in 8 hours)
Jul-21 @ 09:00 - Jul-21 @ 18:00
Wind Visibility
90° at 12 knots 10,000+ meters
Clouds
  • No significant clouds
Conditions